Bement, Illinois
Current Conditions -  °F | °C
As of 9:54 PM on Tuesday 21 Oct 2014 (Local Time) from KDEC Reporting Station
Clear Clear  
Wind Chill: 37°   Ceiling: Unl
Heat Index: 42°   Visibility: 10mi
Dew Point: 38°   Wind: 8mph
Humidity: 85%   Direction: 50°NE
Pressure: 30.23"   Gusts: NA
Location:  39.92°N, 88.57°W
Report Text: KDEC 220254Z 05007KT 10SM CLR 06/03 A3023 RMK AO2 SLP240 T00560033 51020
Loading
Personal Weather Stations






























Interactive Weather Map New forecast layout! Learn more

10-Day Weather Forecast

Advertisements
Track Severe Weather on mobile